createdAt,value
2018-11-28T00:02:12.020Z,22.93
2018-11-28T00:04:40.093Z,22.60
2018-11-28T00:07:08.165Z,20.27
2018-11-28T00:09:36.259Z,23.80
2018-11-28T00:12:04.556Z,22.43
2018-11-28T00:14:32.624Z,20.60
2018-11-28T00:17:00.680Z,24.77
2018-11-28T00:19:28.762Z,22.37
2018-11-28T00:21:56.855Z,25.23
2018-11-28T00:24:24.925Z,23.63
2018-11-28T00:26:52.996Z,21.33
2018-11-28T00:29:21.095Z,21.40
2018-11-28T00:31:49.185Z,20.70
2018-11-28T00:34:17.279Z,25.40
2018-11-28T00:36:45.345Z,20.80
2018-11-28T00:39:13.440Z,20.30
2018-11-28T00:41:42.040Z,21.23
2018-11-28T00:44:10.128Z,24.47
2018-11-28T00:46:38.184Z,19.43
2018-11-28T00:49:06.494Z,22.90
2018-11-28T00:51:35.369Z,22.40
2018-11-28T00:54:03.432Z,20.50
2018-11-28T00:56:31.503Z,22.07
2018-11-28T00:58:59.572Z,21.57
2018-11-28T01:01:27.651Z,23.20
2018-11-28T01:03:55.758Z,24.30
2018-11-28T01:06:23.853Z,23.93
2018-11-28T01:11:29.270Z,22.17
2018-11-28T01:13:57.336Z,25.57
2018-11-28T01:16:25.488Z,24.50
2018-11-28T01:18:53.556Z,24.60
2018-11-28T01:21:21.620Z,22.60
2018-11-28T01:23:49.692Z,21.80
2018-11-28T01:26:17.769Z,25.23
2018-11-28T01:28:46.515Z,21.27
2018-11-28T01:31:13.926Z,26.67
2018-11-28T01:33:42.000Z,25.03
2018-11-28T01:36:10.069Z,23.17
2018-11-28T01:38:38.141Z,25.13
2018-11-28T01:41:06.441Z,22.73
2018-11-28T01:43:34.509Z,28.07
2018-11-28T01:46:02.587Z,27.17
2018-11-28T01:48:30.662Z,26.07
2018-11-28T01:50:58.721Z,23.63
2018-11-28T01:53:27.151Z,20.53
2018-11-28T01:55:55.240Z,23.97
2018-11-28T01:58:23.375Z,22.70
2018-11-28T02:00:51.437Z,25.47
2018-11-28T02:03:19.565Z,22.77
2018-11-28T02:05:47.988Z,22.37
2018-11-28T02:08:16.069Z,25.53
2018-11-28T02:10:44.156Z,26.20
2018-11-28T02:13:12.219Z,25.03
2018-11-28T02:15:40.355Z,26.20
2018-11-28T02:18:08.688Z,23.23
2018-11-28T02:20:36.785Z,25.80
2018-11-28T02:23:05.161Z,23.73
2018-11-28T02:25:33.232Z,26.47
2018-11-28T02:28:01.325Z,28.33
2018-11-28T02:30:29.725Z,28.73
2018-11-28T02:32:57.789Z,28.87
2018-11-28T02:35:25.860Z,25.53
2018-11-28T02:37:53.944Z,27.43
2018-11-28T02:40:22.017Z,25.57
2018-11-28T02:42:50.682Z,24.93
2018-11-28T02:45:19.748Z,25.13
2018-11-28T02:47:47.829Z,26.57
2018-11-28T02:50:15.898Z,24.63
2018-11-28T02:52:43.981Z,26.50
2018-11-28T02:55:13.954Z,26.30
2018-11-28T02:57:43.897Z,23.33
2018-11-28T03:00:16.399Z,24.77
2018-11-28T03:02:44.472Z,22.43
2018-11-28T03:05:12.865Z,23.70
2018-11-28T03:07:41.801Z,26.80
2018-11-28T03:10:14.809Z,30.67
2018-11-28T03:12:42.949Z,26.07
2018-11-28T03:15:13.354Z,28.27
2018-11-28T03:17:41.429Z,25.90
2018-11-28T03:20:10.478Z,23.93
2018-11-28T03:22:38.563Z,25.30
2018-11-28T03:25:08.324Z,25.60
2018-11-28T03:27:36.402Z,27.77
2018-11-28T03:30:10.059Z,23.40
2018-11-28T03:32:38.127Z,25.00
2018-11-28T03:35:07.490Z,28.10
2018-11-28T03:37:35.573Z,25.07
2018-11-28T03:40:03.691Z,22.97
2018-11-28T03:42:31.966Z,26.17
2018-11-28T03:45:00.059Z,25.83
2018-11-28T03:47:28.144Z,22.97
2018-11-28T03:49:56.223Z,22.47
2018-11-28T03:52:24.310Z,22.83
2018-11-28T03:54:52.677Z,21.63
2018-11-28T03:57:20.750Z,24.13
2018-11-28T03:59:48.873Z,28.43
2018-11-28T04:02:16.974Z,24.67
2018-11-28T04:04:45.092Z,25.27
2018-11-28T04:07:13.457Z,26.27
2018-11-28T04:09:42.121Z,24.97
2018-11-28T04:12:10.188Z,26.57
2018-11-28T04:14:38.266Z,26.27
2018-11-28T04:17:06.438Z,25.47
2018-11-28T04:19:34.840Z,32.40
2018-11-28T04:22:02.913Z,28.60
2018-11-28T04:24:31.012Z,30.27
2018-11-28T04:26:59.089Z,25.37
2018-11-28T04:29:27.186Z,26.43
2018-11-28T04:31:55.264Z,25.77
2018-11-28T04:34:23.354Z,30.40
2018-11-28T04:36:51.457Z,23.57
2018-11-28T04:39:19.604Z,30.37
2018-11-28T04:41:47.704Z,27.63
2018-11-28T04:44:15.786Z,24.83
2018-11-28T04:46:43.884Z,32.53
2018-11-28T04:49:11.989Z,28.83
2018-11-28T04:51:40.645Z,24.87
2018-11-28T04:54:08.732Z,27.90
2018-11-28T04:56:36.792Z,25.77
2018-11-28T04:59:05.273Z,25.37
2018-11-28T05:01:33.357Z,25.93
2018-11-28T05:04:01.445Z,26.70
2018-11-28T05:07:35.953Z,26.60
2018-11-28T05:10:05.610Z,31.23
2018-11-28T05:12:33.686Z,28.40
2018-11-28T05:15:01.783Z,26.33
2018-11-28T05:17:29.881Z,27.20
2018-11-28T05:19:58.269Z,26.13
2018-11-28T05:22:26.341Z,28.97
2018-11-28T05:24:54.642Z,30.20
2018-11-28T05:27:22.833Z,27.03
2018-11-28T05:29:50.897Z,24.30
2018-11-28T05:32:19.017Z,30.93
2018-11-28T05:34:47.088Z,27.13
2018-11-28T05:37:15.166Z,26.63
2018-11-28T05:39:43.241Z,28.20
2018-11-28T05:42:11.315Z,26.03
2018-11-28T05:44:39.730Z,27.67
2018-11-28T05:47:07.809Z,26.00
2018-11-28T05:49:35.941Z,31.37
2018-11-28T05:52:04.034Z,25.00
2018-11-28T05:54:32.110Z,28.60
2018-11-28T05:57:00.212Z,28.00
2018-11-28T05:59:28.269Z,31.47
2018-11-28T06:01:56.341Z,27.83
2018-11-28T06:04:24.454Z,27.30
2018-11-28T06:06:52.551Z,27.90
2018-11-28T06:09:20.653Z,27.63
2018-11-28T06:11:48.725Z,26.97
2018-11-28T06:14:16.794Z,26.53
2018-11-28T06:16:44.885Z,27.07
2018-11-28T06:19:12.956Z,28.10
2018-11-28T06:21:41.417Z,28.53
2018-11-28T06:24:09.520Z,26.47
2018-11-28T06:26:37.589Z,24.33
2018-11-28T06:29:06.418Z,26.10
2018-11-28T06:31:34.527Z,26.27
2018-11-28T06:34:02.612Z,26.43
2018-11-28T06:36:30.766Z,24.50
2018-11-28T06:38:58.821Z,26.97
2018-11-28T06:41:26.912Z,27.30
2018-11-28T06:43:55.001Z,29.30
2018-11-28T06:46:23.385Z,29.43
2018-11-28T06:48:51.451Z,29.07
2018-11-28T06:51:19.537Z,32.10
2018-11-28T06:53:47.609Z,28.13
2018-11-28T06:56:15.758Z,31.97
2018-11-28T06:58:43.844Z,23.50
2018-11-28T07:01:11.916Z,27.97
2018-11-28T07:03:40.738Z,27.20
2018-11-28T07:06:08.808Z,27.50
2018-11-28T07:08:36.861Z,29.83
2018-11-28T07:11:05.418Z,24.00
2018-11-28T07:13:33.493Z,29.50
2018-11-28T07:16:01.566Z,24.07
2018-11-28T07:18:41.050Z,25.93
2018-11-28T07:21:09.185Z,26.33
2018-11-28T07:23:37.272Z,30.30
2018-11-28T07:26:05.595Z,24.83
2018-11-28T07:28:33.661Z,26.20
2018-11-28T07:31:01.741Z,30.37
2018-11-28T07:33:29.945Z,26.37
2018-11-28T07:35:57.960Z,32.07
2018-11-28T07:38:26.029Z,28.80
2018-11-28T07:40:54.090Z,28.63
2018-11-28T07:43:22.173Z,26.67
2018-11-28T07:45:51.798Z,28.23
2018-11-28T07:48:19.955Z,30.37
2018-11-28T07:50:48.015Z,24.43
2018-11-28T07:53:16.082Z,24.67
2018-11-28T07:55:44.173Z,29.47
2018-11-28T07:58:12.425Z,27.47
2018-11-28T08:00:40.551Z,25.40
2018-11-28T08:03:09.141Z,37.20
2018-11-28T08:05:38.000Z,25.83
2018-11-28T08:08:08.521Z,28.80
2018-11-28T08:10:37.017Z,25.20
2018-11-28T08:13:05.617Z,29.80
2018-11-28T08:15:33.741Z,23.27
2018-11-28T08:18:01.821Z,24.67
2018-11-28T08:20:30.009Z,27.63
2018-11-28T08:22:58.089Z,27.43
2018-11-28T08:25:27.877Z,27.73
2018-11-28T08:27:54.344Z,25.83
2018-11-28T08:30:25.313Z,27.90
2018-11-28T08:32:54.211Z,23.53
2018-11-28T08:35:22.625Z,26.23
2018-11-28T08:37:50.815Z,28.57
2018-11-28T08:40:26.477Z,27.37
2018-11-28T08:42:55.789Z,27.57
2018-11-28T08:45:23.852Z,29.03
2018-11-28T08:47:53.140Z,25.00
2018-11-28T08:50:22.322Z,26.80
2018-11-28T08:52:50.410Z,25.23
2018-11-28T08:55:18.480Z,28.50
2018-11-28T08:57:46.728Z,28.57
2018-11-28T09:00:23.720Z,23.17
2018-11-28T09:02:53.863Z,26.13
2018-11-28T09:05:21.953Z,25.00
2018-11-28T09:07:50.046Z,24.73
2018-11-28T09:10:18.973Z,25.10
2018-11-28T09:12:47.478Z,27.30
2018-11-28T09:15:20.840Z,26.07
2018-11-28T09:17:48.925Z,25.37
2018-11-28T09:20:16.998Z,24.27
2018-11-28T09:22:45.071Z,26.17
2018-11-28T09:25:15.797Z,23.63
2018-11-28T09:27:44.888Z,27.17
2018-11-28T09:30:15.030Z,24.27
2018-11-28T09:32:43.149Z,23.27
2018-11-28T09:35:11.893Z,22.83
2018-11-28T09:37:45.509Z,26.03
2018-11-28T09:40:17.636Z,24.70
2018-11-28T09:42:46.142Z,27.67
2018-11-28T09:45:15.229Z,24.33
2018-11-28T09:47:43.328Z,25.70
2018-11-28T09:50:15.453Z,23.00
2018-11-28T09:52:43.576Z,24.80
2018-11-28T09:55:13.047Z,23.13
2018-11-28T09:57:41.749Z,21.97
2018-11-28T10:00:13.918Z,28.23
2018-11-28T10:02:42.041Z,25.93
2018-11-28T10:05:12.688Z,22.23
2018-11-28T10:07:41.490Z,24.23
2018-11-28T10:10:10.873Z,27.23
2018-11-28T10:12:38.964Z,24.93
2018-11-28T10:15:16.865Z,25.00
2018-11-28T10:17:45.298Z,25.03
2018-11-28T10:20:14.093Z,25.23
2018-11-28T10:22:42.392Z,23.20
2018-11-28T10:25:13.493Z,25.53
2018-11-28T10:27:42.001Z,27.93
2018-11-28T10:30:15.374Z,24.13
2018-11-28T10:32:43.482Z,25.27
2018-11-28T10:35:11.540Z,23.97
2018-11-28T10:37:39.687Z,20.70
2018-11-28T10:40:11.619Z,26.87
2018-11-28T10:42:40.421Z,23.50
2018-11-28T10:45:10.013Z,24.27
2018-11-28T10:47:38.099Z,24.97
2018-11-28T10:50:08.808Z,21.47
2018-11-28T10:52:37.351Z,23.03
2018-11-28T10:55:07.201Z,23.33
2018-11-28T10:57:35.336Z,24.30
2018-11-28T11:00:03.537Z,27.13
2018-11-28T11:02:37.065Z,25.07
2018-11-28T11:05:11.255Z,21.27
2018-11-28T11:07:44.807Z,22.53
2018-11-28T11:10:18.297Z,23.93
2018-11-28T11:12:51.835Z,24.20
2018-11-28T11:15:19.923Z,21.20
2018-11-28T11:17:48.010Z,23.57
2018-11-28T11:20:16.113Z,20.90
2018-11-28T11:22:44.484Z,21.43
2018-11-28T11:25:12.593Z,23.03
2018-11-28T11:27:40.745Z,26.50
2018-11-28T11:30:10.331Z,21.47
2018-11-28T11:32:38.433Z,18.33
2018-11-28T11:35:08.311Z,20.40
2018-11-28T11:37:36.435Z,20.10
2018-11-28T11:40:07.384Z,21.03
2018-11-28T11:42:35.508Z,23.73
2018-11-28T11:45:03.601Z,19.90
2018-11-28T11:47:31.669Z,24.67
2018-11-28T11:49:59.762Z,22.17
2018-11-28T11:52:28.026Z,21.00
2018-11-28T11:54:56.082Z,24.00
2018-11-28T11:57:24.237Z,22.17
2018-11-28T11:59:52.565Z,19.70
2018-11-28T12:02:20.667Z,21.50
2018-11-28T12:04:48.771Z,22.93
2018-11-28T12:07:16.873Z,22.63
2018-11-28T12:09:44.949Z,21.90
2018-11-28T12:12:13.067Z,22.23
2018-11-28T12:14:41.165Z,21.00
2018-11-28T12:17:09.229Z,25.17
2018-11-28T12:19:37.326Z,20.53
2018-11-28T12:22:05.872Z,20.27
2018-11-28T12:24:34.149Z,26.53
2018-11-28T12:27:02.238Z,18.90
2018-11-28T12:29:30.637Z,22.87
2018-11-28T12:31:58.705Z,23.93
2018-11-28T12:34:26.784Z,21.93
2018-11-28T12:36:54.919Z,25.97
2018-11-28T12:41:51.388Z,23.80
2018-11-28T12:44:19.477Z,21.53
2018-11-28T12:46:47.550Z,24.97
2018-11-28T12:49:15.673Z,20.27
2018-11-28T12:51:43.754Z,19.50
2018-11-28T12:54:11.829Z,17.10
2018-11-28T12:56:39.997Z,20.87
2018-11-28T12:59:08.300Z,19.13
2018-11-28T13:01:36.381Z,18.93
2018-11-28T13:04:04.600Z,20.10
2018-11-28T13:06:32.678Z,18.13
2018-11-28T13:09:00.805Z,17.67
2018-11-28T13:11:28.884Z,17.60
2018-11-28T13:13:57.021Z,17.37
2018-11-28T13:16:25.109Z,19.47
2018-11-28T13:18:53.488Z,17.97
2018-11-28T13:21:21.622Z,16.60
2018-11-28T13:23:49.725Z,19.77
2018-11-28T13:26:17.809Z,19.53
2018-11-28T13:28:45.999Z,17.37
2018-11-28T13:31:14.093Z,18.03
2018-11-28T13:33:42.145Z,17.73
2018-11-28T13:36:10.217Z,20.33
2018-11-28T13:38:38.451Z,17.60
2018-11-28T13:41:06.697Z,17.63
2018-11-28T13:43:34.829Z,17.90
2018-11-28T13:46:07.136Z,18.03
2018-11-28T13:48:31.073Z,17.67
2018-11-28T13:50:59.176Z,16.73
2018-11-28T13:53:27.278Z,17.10
2018-11-28T13:56:57.110Z,18.03
2018-11-28T13:58:24.657Z,17.27
2018-11-28T14:00:52.816Z,16.30
2018-11-28T14:03:20.900Z,16.93
2018-11-28T14:05:49.008Z,16.03
2018-11-28T14:08:17.075Z,20.03
2018-11-28T14:10:45.149Z,14.40
2018-11-28T14:13:13.237Z,15.63
2018-11-28T14:15:41.509Z,15.90
2018-11-28T14:18:12.336Z,15.87
2018-11-28T14:20:40.425Z,16.63
2018-11-28T14:23:08.605Z,14.60
2018-11-28T14:25:36.911Z,16.73
2018-11-28T14:28:05.166Z,16.03
2018-11-28T14:30:33.294Z,18.23
2018-11-28T14:33:01.446Z,17.07
2018-11-28T14:35:29.533Z,15.83
2018-11-28T14:37:57.622Z,14.37
2018-11-28T14:40:25.741Z,15.70
2018-11-28T14:42:55.102Z,14.37
2018-11-28T14:45:23.248Z,17.47
2018-11-28T14:47:51.829Z,17.70
2018-11-28T14:50:27.378Z,13.77
2018-11-28T14:52:56.691Z,14.13
2018-11-28T14:55:25.867Z,15.07
2018-11-28T14:57:53.965Z,16.50
2018-11-28T15:00:26.001Z,14.37
2018-11-28T15:03:27.712Z,13.77
2018-11-28T15:07:00.154Z,13.73
2018-11-28T15:09:35.362Z,15.67
2018-11-28T15:12:11.495Z,13.40
2018-11-28T15:14:34.541Z,12.83
2018-11-28T15:17:02.626Z,14.97
2018-11-28T15:19:30.705Z,14.23
2018-11-28T15:21:58.773Z,14.50
2018-11-28T15:24:26.865Z,15.30
2018-11-28T15:26:54.947Z,12.50
2018-11-28T15:29:23.041Z,11.07
2018-11-28T15:31:51.129Z,12.63
2018-11-28T15:34:19.221Z,14.53
2018-11-28T15:36:47.830Z,11.83
2018-11-28T15:39:16.006Z,12.30
2018-11-28T15:41:44.115Z,12.23
2018-11-28T15:44:12.205Z,11.20
2018-11-28T15:46:40.381Z,9.57
2018-11-28T15:49:09.356Z,10.30
2018-11-28T15:51:37.445Z,9.80
2018-11-28T15:54:05.645Z,12.50
2018-11-28T15:56:33.751Z,9.83
2018-11-28T15:59:01.876Z,10.43
2018-11-28T16:01:29.989Z,10.43
2018-11-28T16:03:58.073Z,10.87
2018-11-28T16:06:26.177Z,7.40
2018-11-28T16:08:54.781Z,12.13
2018-11-28T16:11:23.857Z,7.40
2018-11-28T16:13:51.962Z,10.10
2018-11-28T16:16:20.033Z,7.13
2018-11-28T16:18:48.157Z,7.73
2018-11-28T16:21:16.257Z,7.67
2018-11-28T16:23:44.349Z,8.43
2018-11-28T16:26:12.486Z,10.50
2018-11-28T16:28:40.573Z,11.35
2018-11-28T16:31:08.660Z,8.37
2018-11-28T16:33:37.005Z,7.37
2018-11-28T16:36:05.107Z,5.90
2018-11-28T16:38:33.205Z,6.57
2018-11-28T16:41:01.312Z,6.53
2018-11-28T16:43:29.374Z,8.60
2018-11-28T16:45:57.437Z,6.13
2018-11-28T16:48:25.545Z,8.60
2018-11-28T16:50:53.610Z,6.77
2018-11-28T16:53:21.692Z,5.23
2018-11-28T16:55:50.077Z,6.83
2018-11-28T16:58:18.141Z,6.27
2018-11-28T17:00:46.225Z,5.73
2018-11-28T17:03:14.603Z,6.77
2018-11-28T17:05:42.676Z,5.37
2018-11-28T17:08:10.744Z,6.33
2018-11-28T17:10:38.820Z,5.53
2018-11-28T17:13:07.213Z,6.60
2018-11-28T17:15:35.281Z,6.00
2018-11-28T17:18:03.621Z,6.10
2018-11-28T17:20:31.697Z,6.27
2018-11-28T17:22:59.885Z,5.63
2018-11-28T17:25:29.140Z,6.30
2018-11-28T17:27:57.977Z,7.00
2018-11-28T17:30:27.221Z,6.53
2018-11-28T17:32:55.328Z,8.77
2018-11-28T17:35:23.400Z,6.87
2018-11-28T17:37:51.857Z,7.70
2018-11-28T17:40:21.678Z,8.37
2018-11-28T17:42:51.862Z,7.93
2018-11-28T17:45:20.360Z,9.17
2018-11-28T17:47:48.423Z,10.50
2018-11-28T17:50:18.529Z,9.47
2018-11-28T17:53:18.616Z,8.77
2018-11-28T17:55:49.905Z,9.80
2018-11-28T17:58:18.309Z,9.93
2018-11-28T18:00:46.366Z,9.43
2018-11-28T18:03:14.464Z,8.70
2018-11-28T18:05:42.529Z,8.90
2018-11-28T18:08:10.608Z,9.87
2018-11-28T18:10:38.678Z,11.80
2018-11-28T18:13:08.873Z,10.10
2018-11-28T18:15:37.157Z,11.73
2018-11-28T18:18:07.689Z,9.03
2018-11-28T18:20:35.862Z,9.43
2018-11-28T18:23:04.212Z,10.07
2018-11-28T18:25:32.632Z,9.50
2018-11-28T18:28:00.741Z,9.40
2018-11-28T18:30:28.820Z,9.50
2018-11-28T18:32:57.151Z,8.73
2018-11-28T18:35:25.249Z,10.13
2018-11-28T18:37:53.336Z,8.77
2018-11-28T18:40:21.437Z,13.53
2018-11-28T18:42:49.518Z,8.80
2018-11-28T18:45:21.068Z,9.00
2018-11-28T18:47:49.173Z,8.77
2018-11-28T18:50:17.253Z,10.00
2018-11-28T18:52:45.497Z,11.20
2018-11-28T18:55:16.691Z,8.93
2018-11-28T18:57:42.910Z,9.10
2018-11-28T19:00:15.143Z,7.97
2018-11-28T19:02:43.238Z,10.30
2018-11-28T19:05:11.304Z,7.17
2018-11-28T19:07:39.368Z,7.47
2018-11-28T19:10:13.716Z,6.57
2018-11-28T19:12:41.806Z,8.30
2018-11-28T19:15:22.860Z,6.73
2018-11-28T19:17:51.194Z,5.50
2018-11-28T19:20:20.867Z,5.57
2018-11-28T19:22:49.565Z,5.97
2018-11-28T19:25:18.777Z,7.57
2018-11-28T19:27:47.107Z,6.40
2018-11-28T19:30:19.628Z,8.15
2018-11-28T19:32:47.701Z,5.60
2018-11-28T19:35:15.810Z,5.50
2018-11-28T19:37:43.952Z,6.77
2018-11-28T19:40:47.002Z,5.20
2018-11-28T19:43:15.110Z,5.33
2018-11-28T19:45:43.184Z,5.03
2018-11-28T19:48:11.256Z,4.97
2018-11-28T19:50:39.342Z,5.20
2018-11-28T19:53:08.442Z,6.10
2018-11-28T19:55:36.529Z,5.93
2018-11-28T19:58:04.631Z,5.33
2018-11-28T20:00:32.698Z,6.57
2018-11-28T20:03:00.798Z,5.33
2018-11-28T20:05:28.905Z,5.63
2018-11-28T20:07:56.987Z,7.70
2018-11-28T20:10:25.862Z,5.47
2018-11-28T20:12:53.958Z,5.20
2018-11-28T20:15:26.230Z,5.77
2018-11-28T20:17:54.500Z,6.27
2018-11-28T20:20:22.813Z,6.00
2018-11-28T20:22:50.873Z,6.47
2018-11-28T20:25:20.102Z,5.93
2018-11-28T20:27:53.806Z,5.73
2018-11-28T20:30:30.413Z,6.50
2018-11-28T20:32:58.513Z,6.57
2018-11-28T20:35:26.646Z,8.17
2018-11-28T20:37:54.870Z,6.27
2018-11-28T20:40:23.386Z,5.70
2018-11-28T20:42:53.500Z,5.43
2018-11-28T20:45:21.829Z,5.20
2018-11-28T20:47:50.017Z,6.97
2018-11-28T20:50:34.221Z,5.63
2018-11-28T20:53:06.285Z,6.23
2018-11-28T20:55:34.535Z,6.60
2018-11-28T20:58:02.651Z,5.17
2018-11-28T21:00:30.736Z,5.43
2018-11-28T21:02:58.806Z,6.40
2018-11-28T21:05:26.893Z,6.30
2018-11-28T21:07:55.036Z,4.90
2018-11-28T21:10:28.673Z,7.20
2018-11-28T21:12:57.693Z,5.63
2018-11-28T21:15:25.793Z,5.23
2018-11-28T21:17:53.865Z,6.20
2018-11-28T21:20:22.329Z,5.13
2018-11-28T21:22:58.321Z,6.53
2018-11-28T21:25:26.421Z,5.23
2018-11-28T21:27:54.490Z,6.80
2018-11-28T21:30:22.580Z,5.07
2018-11-28T21:32:51.916Z,5.00
2018-11-28T21:35:30.228Z,6.10
2018-11-28T21:37:58.646Z,5.60
2018-11-28T21:40:26.818Z,5.40
2018-11-28T21:42:54.934Z,5.00
2018-11-28T21:45:23.501Z,5.37
2018-11-28T21:47:51.601Z,5.57
2018-11-28T21:50:20.646Z,5.57
2018-11-28T21:52:48.764Z,7.00
2018-11-28T21:55:19.922Z,5.97
2018-11-28T21:57:48.002Z,5.37
2018-11-28T22:00:17.821Z,5.73
2018-11-28T22:02:46.201Z,8.47
2018-11-28T22:05:15.010Z,5.50
2018-11-28T22:07:43.072Z,6.37
2018-11-28T22:10:18.176Z,5.57
2018-11-28T22:12:46.260Z,6.53
2018-11-28T22:15:16.180Z,5.00
2018-11-28T22:17:47.341Z,5.33
2018-11-28T22:20:15.476Z,11.47
2018-11-28T22:22:43.588Z,5.83
2018-11-28T22:25:17.004Z,6.40
2018-11-28T22:27:45.083Z,6.80
2018-11-28T22:30:16.189Z,8.97
2018-11-28T22:32:44.316Z,5.00
2018-11-28T22:35:12.413Z,6.07
2018-11-28T22:37:40.722Z,6.00
2018-11-28T22:40:25.876Z,6.57
2018-11-28T22:42:53.921Z,5.43
2018-11-28T22:45:24.173Z,6.10
2018-11-28T22:47:52.473Z,6.23
2018-11-28T22:50:21.217Z,6.10
2018-11-28T22:52:49.494Z,4.97
2018-11-28T22:55:18.179Z,6.47
2018-11-28T22:57:47.208Z,5.60
2018-11-28T23:00:16.733Z,6.53
2018-11-28T23:02:50.225Z,6.23
2018-11-28T23:05:18.804Z,9.13
2018-11-28T23:07:48.604Z,6.10
2018-11-28T23:10:16.673Z,6.50
2018-11-28T23:12:44.747Z,8.13
2018-11-28T23:15:12.812Z,7.63
2018-11-28T23:17:40.905Z,10.90
2018-11-28T23:20:09.708Z,6.70
2018-11-28T23:22:37.847Z,6.43
2018-11-28T23:25:07.861Z,8.53
2018-11-28T23:27:35.957Z,7.63
2018-11-28T23:30:04.073Z,7.70
2018-11-28T23:32:32.150Z,7.27
2018-11-28T23:35:00.240Z,8.30
2018-11-28T23:37:28.327Z,8.70
2018-11-28T23:39:56.497Z,8.63
2018-11-28T23:42:24.545Z,8.43
2018-11-28T23:44:52.617Z,8.87
2018-11-28T23:47:20.720Z,6.13
2018-11-28T23:49:48.793Z,6.10
2018-11-28T23:52:16.865Z,9.33
2018-11-28T23:54:44.952Z,9.93
2018-11-28T23:57:13.048Z,7.77
2018-11-28T23:59:41.120Z,5.63
